sensor_id;sensor_type;location;lat;lon;timestamp;P1;durP1;ratioP1;P2;durP2;ratioP2
22176;SDS011;11254;50.098;8.726;2023-05-07T00:00:51;4.55;;;2.30;;
22176;SDS011;11254;50.098;8.726;2023-05-07T00:03:21;3.90;;;2.13;;
22176;SDS011;11254;50.098;8.726;2023-05-07T00:05:50;5.03;;;2.20;;
22176;SDS011;11254;50.098;8.726;2023-05-07T00:08:19;4.68;;;2.30;;
22176;SDS011;11254;50.098;8.726;2023-05-07T00:10:48;3.60;;;1.77;;
22176;SDS011;11254;50.098;8.726;2023-05-07T00:13:16;4.78;;;2.08;;
22176;SDS011;11254;50.098;8.726;2023-05-07T00:15:46;4.20;;;1.98;;
22176;SDS011;11254;50.098;8.726;2023-05-07T00:18:14;5.28;;;2.20;;
22176;SDS011;11254;50.098;8.726;2023-05-07T00:20:43;7.60;;;2.50;;
22176;SDS011;11254;50.098;8.726;2023-05-07T00:23:11;3.47;;;1.85;;
22176;SDS011;11254;50.098;8.726;2023-05-07T00:25:39;3.90;;;1.92;;
22176;SDS011;11254;50.098;8.726;2023-05-07T00:28:08;6.25;;;2.30;;
22176;SDS011;11254;50.098;8.726;2023-05-07T00:30:36;4.97;;;2.17;;
22176;SDS011;11254;50.098;8.726;2023-05-07T00:33:06;6.57;;;2.00;;
22176;SDS011;11254;50.098;8.726;2023-05-07T00:35:35;5.30;;;2.13;;
22176;SDS011;11254;50.098;8.726;2023-05-07T00:38:03;3.72;;;1.90;;
22176;SDS011;11254;50.098;8.726;2023-05-07T00:40:31;4.20;;;2.08;;
22176;SDS011;11254;50.098;8.726;2023-05-07T00:43:00;4.07;;;2.28;;
22176;SDS011;11254;50.098;8.726;2023-05-07T00:45:28;4.32;;;2.20;;
22176;SDS011;11254;50.098;8.726;2023-05-07T00:47:57;5.90;;;2.33;;
22176;SDS011;11254;50.098;8.726;2023-05-07T00:50:28;4.07;;;1.90;;
22176;SDS011;11254;50.098;8.726;2023-05-07T00:52:57;4.75;;;2.30;;
22176;SDS011;11254;50.098;8.726;2023-05-07T00:55:26;5.50;;;2.15;;
22176;SDS011;11254;50.098;8.726;2023-05-07T00:57:55;5.70;;;2.40;;
22176;SDS011;11254;50.098;8.726;2023-05-07T01:00:23;4.75;;;2.28;;
22176;SDS011;11254;50.098;8.726;2023-05-07T01:02:52;6.38;;;2.40;;
22176;SDS011;11254;50.098;8.726;2023-05-07T01:05:21;5.00;;;2.20;;
22176;SDS011;11254;50.098;8.726;2023-05-07T01:07:53;5.18;;;2.22;;
22176;SDS011;11254;50.098;8.726;2023-05-07T01:10:22;4.93;;;2.22;;
22176;SDS011;11254;50.098;8.726;2023-05-07T01:12:51;4.65;;;2.13;;
22176;SDS011;11254;50.098;8.726;2023-05-07T01:15:20;6.10;;;2.10;;
22176;SDS011;11254;50.098;8.726;2023-05-07T01:17:48;4.90;;;2.65;;
22176;SDS011;11254;50.098;8.726;2023-05-07T01:20:23;4.95;;;2.40;;
22176;SDS011;11254;50.098;8.726;2023-05-07T01:22:55;4.50;;;2.20;;
22176;SDS011;11254;50.098;8.726;2023-05-07T01:25:25;5.30;;;2.42;;
22176;SDS011;11254;50.098;8.726;2023-05-07T01:27:57;4.80;;;2.60;;
22176;SDS011;11254;50.098;8.726;2023-05-07T01:30:30;4.50;;;2.55;;
22176;SDS011;11254;50.098;8.726;2023-05-07T01:33:01;5.72;;;2.38;;
22176;SDS011;11254;50.098;8.726;2023-05-07T01:35:32;6.72;;;3.05;;
22176;SDS011;11254;50.098;8.726;2023-05-07T01:38:03;4.82;;;2.50;;
22176;SDS011;11254;50.098;8.726;2023-05-07T01:40:32;5.15;;;2.60;;
22176;SDS011;11254;50.098;8.726;2023-05-07T01:43:01;4.78;;;2.47;;
22176;SDS011;11254;50.098;8.726;2023-05-07T01:45:32;7.03;;;2.83;;
22176;SDS011;11254;50.098;8.726;2023-05-07T01:48:01;4.63;;;2.20;;
22176;SDS011;11254;50.098;8.726;2023-05-07T01:50:29;5.72;;;2.47;;
22176;SDS011;11254;50.098;8.726;2023-05-07T01:52:58;6.20;;;2.50;;
22176;SDS011;11254;50.098;8.726;2023-05-07T01:55:29;4.45;;;2.30;;
22176;SDS011;11254;50.098;8.726;2023-05-07T01:57:58;5.05;;;2.80;;
22176;SDS011;11254;50.098;8.726;2023-05-07T02:00:26;5.25;;;3.00;;
22176;SDS011;11254;50.098;8.726;2023-05-07T02:02:55;5.82;;;2.67;;
22176;SDS011;11254;50.098;8.726;2023-05-07T02:05:35;6.38;;;3.17;;
22176;SDS011;11254;50.098;8.726;2023-05-07T02:08:10;5.55;;;2.35;;
22176;SDS011;11254;50.098;8.726;2023-05-07T02:10:40;5.60;;;2.45;;
22176;SDS011;11254;50.098;8.726;2023-05-07T02:13:09;3.90;;;2.22;;
22176;SDS011;11254;50.098;8.726;2023-05-07T02:15:37;5.38;;;2.70;;
22176;SDS011;11254;50.098;8.726;2023-05-07T02:18:07;6.13;;;2.60;;
22176;SDS011;11254;50.098;8.726;2023-05-07T02:20:36;4.18;;;2.25;;
22176;SDS011;11254;50.098;8.726;2023-05-07T02:23:05;4.22;;;2.20;;
22176;SDS011;11254;50.098;8.726;2023-05-07T02:25:33;5.70;;;2.50;;
22176;SDS011;11254;50.098;8.726;2023-05-07T02:28:03;5.05;;;2.80;;
22176;SDS011;11254;50.098;8.726;2023-05-07T02:30:40;7.13;;;2.75;;
22176;SDS011;11254;50.098;8.726;2023-05-07T02:33:09;5.55;;;3.00;;
22176;SDS011;11254;50.098;8.726;2023-05-07T02:35:39;4.40;;;2.47;;
22176;SDS011;11254;50.098;8.726;2023-05-07T02:38:09;5.82;;;2.67;;
22176;SDS011;11254;50.098;8.726;2023-05-07T02:40:38;4.97;;;2.75;;
22176;SDS011;11254;50.098;8.726;2023-05-07T02:43:08;4.88;;;2.30;;
22176;SDS011;11254;50.098;8.726;2023-05-07T02:45:40;4.10;;;2.30;;
22176;SDS011;11254;50.098;8.726;2023-05-07T02:48:10;4.47;;;2.70;;
22176;SDS011;11254;50.098;8.726;2023-05-07T02:50:38;4.53;;;2.70;;
22176;SDS011;11254;50.098;8.726;2023-05-07T02:53:07;3.90;;;2.42;;
22176;SDS011;11254;50.098;8.726;2023-05-07T02:55:36;4.63;;;2.63;;
22176;SDS011;11254;50.098;8.726;2023-05-07T02:58:04;4.78;;;2.22;;
22176;SDS011;11254;50.098;8.726;2023-05-07T03:00:36;5.13;;;2.83;;
22176;SDS011;11254;50.098;8.726;2023-05-07T03:03:21;5.60;;;2.33;;
22176;SDS011;11254;50.098;8.726;2023-05-07T03:05:49;5.07;;;2.83;;
22176;SDS011;11254;50.098;8.726;2023-05-07T03:08:18;5.03;;;2.88;;
22176;SDS011;11254;50.098;8.726;2023-05-07T03:10:46;4.95;;;2.40;;
22176;SDS011;11254;50.098;8.726;2023-05-07T03:13:15;4.78;;;2.40;;
22176;SDS011;11254;50.098;8.726;2023-05-07T03:15:44;5.85;;;2.33;;
22176;SDS011;11254;50.098;8.726;2023-05-07T03:18:13;4.78;;;2.30;;
22176;SDS011;11254;50.098;8.726;2023-05-07T03:20:42;4.35;;;2.10;;
22176;SDS011;11254;50.098;8.726;2023-05-07T03:23:10;4.50;;;2.20;;
22176;SDS011;11254;50.098;8.726;2023-05-07T03:25:38;4.82;;;2.53;;
22176;SDS011;11254;50.098;8.726;2023-05-07T03:28:07;4.18;;;2.40;;
22176;SDS011;11254;50.098;8.726;2023-05-07T03:30:41;4.57;;;2.50;;
22176;SDS011;11254;50.098;8.726;2023-05-07T03:33:11;8.82;;;2.47;;
22176;SDS011;11254;50.098;8.726;2023-05-07T03:35:39;5.70;;;2.88;;
22176;SDS011;11254;50.098;8.726;2023-05-07T03:38:09;4.28;;;2.53;;
22176;SDS011;11254;50.098;8.726;2023-05-07T03:40:37;4.60;;;2.47;;
22176;SDS011;11254;50.098;8.726;2023-05-07T03:43:06;6.60;;;2.78;;
22176;SDS011;11254;50.098;8.726;2023-05-07T03:45:38;6.18;;;2.70;;
22176;SDS011;11254;50.098;8.726;2023-05-07T03:48:12;5.50;;;2.50;;
22176;SDS011;11254;50.098;8.726;2023-05-07T03:50:42;5.60;;;2.50;;
22176;SDS011;11254;50.098;8.726;2023-05-07T03:53:10;6.20;;;2.50;;
22176;SDS011;11254;50.098;8.726;2023-05-07T03:55:39;5.30;;;2.65;;
22176;SDS011;11254;50.098;8.726;2023-05-07T03:58:07;6.28;;;2.30;;
22176;SDS011;11254;50.098;8.726;2023-05-07T04:00:36;5.45;;;2.55;;
22176;SDS011;11254;50.098;8.726;2023-05-07T04:03:29;3.83;;;2.17;;
22176;SDS011;11254;50.098;8.726;2023-05-07T04:05:59;4.68;;;2.10;;
22176;SDS011;11254;50.098;8.726;2023-05-07T04:08:27;4.10;;;2.40;;
22176;SDS011;11254;50.098;8.726;2023-05-07T04:10:56;4.70;;;2.70;;
22176;SDS011;11254;50.098;8.726;2023-05-07T04:13:27;5.80;;;2.53;;
22176;SDS011;11254;50.098;8.726;2023-05-07T04:16:00;4.68;;;2.35;;
22176;SDS011;11254;50.098;8.726;2023-05-07T04:18:30;4.05;;;2.20;;
22176;SDS011;11254;50.098;8.726;2023-05-07T04:20:59;5.82;;;2.38;;
22176;SDS011;11254;50.098;8.726;2023-05-07T04:23:28;3.97;;;2.30;;
22176;SDS011;11254;50.098;8.726;2023-05-07T04:25:59;5.32;;;2.55;;
22176;SDS011;11254;50.098;8.726;2023-05-07T04:28:33;5.35;;;2.40;;
22176;SDS011;11254;50.098;8.726;2023-05-07T04:31:02;6.53;;;2.50;;
22176;SDS011;11254;50.098;8.726;2023-05-07T04:33:33;4.93;;;2.55;;
22176;SDS011;11254;50.098;8.726;2023-05-07T04:36:03;4.22;;;2.40;;
22176;SDS011;11254;50.098;8.726;2023-05-07T04:38:37;4.60;;;2.47;;
22176;SDS011;11254;50.098;8.726;2023-05-07T04:41:06;6.78;;;3.45;;
22176;SDS011;11254;50.098;8.726;2023-05-07T04:43:39;4.45;;;2.28;;
22176;SDS011;11254;50.098;8.726;2023-05-07T04:46:08;4.93;;;2.47;;
22176;SDS011;11254;50.098;8.726;2023-05-07T04:48:38;4.68;;;2.53;;
22176;SDS011;11254;50.098;8.726;2023-05-07T04:51:07;5.78;;;2.40;;
22176;SDS011;11254;50.098;8.726;2023-05-07T04:53:35;5.60;;;2.63;;
22176;SDS011;11254;50.098;8.726;2023-05-07T04:56:04;4.97;;;2.45;;
22176;SDS011;11254;50.098;8.726;2023-05-07T04:58:38;4.95;;;2.50;;
22176;SDS011;11254;50.098;8.726;2023-05-07T05:01:08;4.78;;;2.55;;
22176;SDS011;11254;50.098;8.726;2023-05-07T05:03:39;4.88;;;2.47;;
22176;SDS011;11254;50.098;8.726;2023-05-07T05:06:07;4.55;;;2.65;;
22176;SDS011;11254;50.098;8.726;2023-05-07T05:08:36;5.40;;;2.80;;
22176;SDS011;11254;50.098;8.726;2023-05-07T05:11:04;5.95;;;2.45;;
22176;SDS011;11254;50.098;8.726;2023-05-07T05:13:35;5.28;;;3.00;;
22176;SDS011;11254;50.098;8.726;2023-05-07T05:16:11;5.03;;;2.72;;
22176;SDS011;11254;50.098;8.726;2023-05-07T05:18:41;5.28;;;2.65;;
22176;SDS011;11254;50.098;8.726;2023-05-07T05:21:12;5.57;;;3.22;;
22176;SDS011;11254;50.098;8.726;2023-05-07T05:23:42;8.45;;;3.22;;
22176;SDS011;11254;50.098;8.726;2023-05-07T05:26:12;5.78;;;2.67;;
22176;SDS011;11254;50.098;8.726;2023-05-07T05:28:40;5.03;;;2.60;;
22176;SDS011;11254;50.098;8.726;2023-05-07T05:31:10;4.60;;;2.78;;
22176;SDS011;11254;50.098;8.726;2023-05-07T05:33:38;8.15;;;2.83;;
22176;SDS011;11254;50.098;8.726;2023-05-07T05:36:10;4.90;;;2.35;;
22176;SDS011;11254;50.098;8.726;2023-05-07T05:38:40;5.22;;;2.67;;
22176;SDS011;11254;50.098;8.726;2023-05-07T05:41:10;5.45;;;2.90;;
22176;SDS011;11254;50.098;8.726;2023-05-07T05:43:38;4.70;;;2.75;;
22176;SDS011;11254;50.098;8.726;2023-05-07T05:46:07;6.43;;;2.92;;
22176;SDS011;11254;50.098;8.726;2023-05-07T05:48:38;5.15;;;2.80;;
22176;SDS011;11254;50.098;8.726;2023-05-07T05:51:07;5.80;;;3.17;;
22176;SDS011;11254;50.098;8.726;2023-05-07T05:53:36;6.15;;;2.75;;
22176;SDS011;11254;50.098;8.726;2023-05-07T05:56:05;7.22;;;2.92;;
22176;SDS011;11254;50.098;8.726;2023-05-07T05:58:35;4.93;;;3.10;;
22176;SDS011;11254;50.098;8.726;2023-05-07T06:01:06;4.57;;;2.85;;
22176;SDS011;11254;50.098;8.726;2023-05-07T06:03:36;5.63;;;3.00;;
22176;SDS011;11254;50.098;8.726;2023-05-07T06:06:10;7.07;;;3.03;;
22176;SDS011;11254;50.098;8.726;2023-05-07T06:08:40;7.43;;;3.20;;
22176;SDS011;11254;50.098;8.726;2023-05-07T06:11:10;6.15;;;3.20;;
22176;SDS011;11254;50.098;8.726;2023-05-07T06:13:41;4.40;;;2.90;;
22176;SDS011;11254;50.098;8.726;2023-05-07T06:16:10;5.13;;;3.33;;
22176;SDS011;11254;50.098;8.726;2023-05-07T06:18:39;7.10;;;3.38;;
22176;SDS011;11254;50.098;8.726;2023-05-07T06:21:07;5.35;;;3.00;;
22176;SDS011;11254;50.098;8.726;2023-05-07T06:23:37;5.90;;;2.92;;
22176;SDS011;11254;50.098;8.726;2023-05-07T06:26:10;4.60;;;2.90;;
22176;SDS011;11254;50.098;8.726;2023-05-07T06:28:42;6.35;;;3.05;;
22176;SDS011;11254;50.098;8.726;2023-05-07T06:31:13;5.60;;;3.20;;
22176;SDS011;11254;50.098;8.726;2023-05-07T06:33:49;6.10;;;3.22;;
22176;SDS011;11254;50.098;8.726;2023-05-07T06:36:18;5.38;;;3.10;;
22176;SDS011;11254;50.098;8.726;2023-05-07T06:38:47;6.57;;;3.28;;
22176;SDS011;11254;50.098;8.726;2023-05-07T06:41:19;6.88;;;3.47;;
22176;SDS011;11254;50.098;8.726;2023-05-07T06:43:48;5.90;;;3.15;;
22176;SDS011;11254;50.098;8.726;2023-05-07T06:46:31;5.38;;;3.20;;
22176;SDS011;11254;50.098;8.726;2023-05-07T06:48:59;4.70;;;3.00;;
22176;SDS011;11254;50.098;8.726;2023-05-07T06:51:28;6.18;;;2.92;;
22176;SDS011;11254;50.098;8.726;2023-05-07T06:54:01;6.40;;;3.58;;
22176;SDS011;11254;50.098;8.726;2023-05-07T06:56:33;8.88;;;3.63;;
22176;SDS011;11254;50.098;8.726;2023-05-07T06:59:10;5.07;;;3.30;;
22176;SDS011;11254;50.098;8.726;2023-05-07T07:01:40;5.85;;;3.13;;
22176;SDS011;11254;50.098;8.726;2023-05-07T07:04:10;6.28;;;3.47;;
22176;SDS011;11254;50.098;8.726;2023-05-07T07:06:43;6.30;;;3.30;;
22176;SDS011;11254;50.098;8.726;2023-05-07T07:09:13;6.18;;;3.83;;
22176;SDS011;11254;50.098;8.726;2023-05-07T07:11:43;6.35;;;3.60;;
22176;SDS011;11254;50.098;8.726;2023-05-07T07:14:12;5.32;;;3.28;;
22176;SDS011;11254;50.098;8.726;2023-05-07T07:16:45;5.53;;;3.75;;
22176;SDS011;11254;50.098;8.726;2023-05-07T07:19:20;7.07;;;3.35;;
22176;SDS011;11254;50.098;8.726;2023-05-07T07:21:56;5.88;;;3.60;;
22176;SDS011;11254;50.098;8.726;2023-05-07T07:24:47;6.05;;;3.85;;
22176;SDS011;11254;50.098;8.726;2023-05-07T07:27:19;5.22;;;3.28;;
22176;SDS011;11254;50.098;8.726;2023-05-07T07:29:51;6.45;;;3.60;;
22176;SDS011;11254;50.098;8.726;2023-05-07T07:32:19;6.13;;;3.50;;
22176;SDS011;11254;50.098;8.726;2023-05-07T07:34:49;5.43;;;3.30;;
22176;SDS011;11254;50.098;8.726;2023-05-07T07:37:18;5.45;;;3.10;;
22176;SDS011;11254;50.098;8.726;2023-05-07T07:39:52;4.93;;;2.90;;
22176;SDS011;11254;50.098;8.726;2023-05-07T07:42:22;5.50;;;3.50;;
22176;SDS011;11254;50.098;8.726;2023-05-07T07:44:51;4.78;;;3.13;;
22176;SDS011;11254;50.098;8.726;2023-05-07T07:47:24;5.47;;;3.40;;
22176;SDS011;11254;50.098;8.726;2023-05-07T07:49:55;5.22;;;2.80;;
22176;SDS011;11254;50.098;8.726;2023-05-07T07:52:23;4.88;;;3.08;;
22176;SDS011;11254;50.098;8.726;2023-05-07T07:54:52;5.63;;;3.50;;
22176;SDS011;11254;50.098;8.726;2023-05-07T07:57:22;5.53;;;3.55;;
22176;SDS011;11254;50.098;8.726;2023-05-07T07:59:51;8.32;;;3.97;;
22176;SDS011;11254;50.098;8.726;2023-05-07T08:02:19;4.88;;;3.20;;
22176;SDS011;11254;50.098;8.726;2023-05-07T08:04:49;6.05;;;3.63;;
22176;SDS011;11254;50.098;8.726;2023-05-07T08:07:18;5.88;;;3.95;;
22176;SDS011;11254;50.098;8.726;2023-05-07T08:09:51;5.70;;;3.95;;
22176;SDS011;11254;50.098;8.726;2023-05-07T08:12:24;5.75;;;3.80;;
22176;SDS011;11254;50.098;8.726;2023-05-07T08:14:52;5.75;;;3.90;;
22176;SDS011;11254;50.098;8.726;2023-05-07T08:17:21;6.22;;;3.80;;
22176;SDS011;11254;50.098;8.726;2023-05-07T08:19:50;6.65;;;3.80;;
22176;SDS011;11254;50.098;8.726;2023-05-07T08:22:18;6.80;;;4.00;;
22176;SDS011;11254;50.098;8.726;2023-05-07T08:24:49;7.07;;;4.00;;
22176;SDS011;11254;50.098;8.726;2023-05-07T08:27:19;6.90;;;3.83;;
22176;SDS011;11254;50.098;8.726;2023-05-07T08:29:49;5.53;;;3.50;;
22176;SDS011;11254;50.098;8.726;2023-05-07T08:32:19;7.88;;;4.00;;
22176;SDS011;11254;50.098;8.726;2023-05-07T08:34:49;5.85;;;3.85;;
22176;SDS011;11254;50.098;8.726;2023-05-07T08:37:29;6.30;;;3.70;;
22176;SDS011;11254;50.098;8.726;2023-05-07T08:39:59;7.82;;;4.40;;
22176;SDS011;11254;50.098;8.726;2023-05-07T08:42:42;7.03;;;4.05;;
22176;SDS011;11254;50.098;8.726;2023-05-07T08:45:45;6.38;;;3.90;;
22176;SDS011;11254;50.098;8.726;2023-05-07T08:48:27;7.93;;;3.75;;
22176;SDS011;11254;50.098;8.726;2023-05-07T08:51:16;6.30;;;4.25;;
22176;SDS011;11254;50.098;8.726;2023-05-07T08:53:53;7.53;;;4.00;;
22176;SDS011;11254;50.098;8.726;2023-05-07T08:56:45;5.93;;;3.80;;
22176;SDS011;11254;50.098;8.726;2023-05-07T08:59:31;7.45;;;4.55;;
22176;SDS011;11254;50.098;8.726;2023-05-07T09:02:08;6.22;;;4.05;;
22176;SDS011;11254;50.098;8.726;2023-05-07T09:05:07;7.13;;;4.05;;
22176;SDS011;11254;50.098;8.726;2023-05-07T09:07:39;6.85;;;4.10;;
22176;SDS011;11254;50.098;8.726;2023-05-07T09:10:39;7.85;;;4.20;;
22176;SDS011;11254;50.098;8.726;2023-05-07T09:13:17;6.07;;;4.28;;
22176;SDS011;11254;50.098;8.726;2023-05-07T09:15:45;7.18;;;4.07;;
22176;SDS011;11254;50.098;8.726;2023-05-07T09:18:19;7.32;;;4.10;;
22176;SDS011;11254;50.098;8.726;2023-05-07T09:23:48;6.45;;;4.25;;
22176;SDS011;11254;50.098;8.726;2023-05-07T09:26:17;8.35;;;4.43;;
22176;SDS011;11254;50.098;8.726;2023-05-07T09:28:48;6.63;;;3.40;;
22176;SDS011;11254;50.098;8.726;2023-05-07T09:34:33;7.32;;;4.07;;
22176;SDS011;11254;50.098;8.726;2023-05-07T09:37:03;6.00;;;4.25;;
22176;SDS011;11254;50.098;8.726;2023-05-07T09:39:38;5.97;;;4.05;;
22176;SDS011;11254;50.098;8.726;2023-05-07T09:42:08;5.90;;;3.95;;
22176;SDS011;11254;50.098;8.726;2023-05-07T09:44:42;5.50;;;3.88;;
22176;SDS011;11254;50.098;8.726;2023-05-07T09:47:32;6.68;;;4.07;;
22176;SDS011;11254;50.098;8.726;2023-05-07T09:50:08;5.47;;;3.58;;
22176;SDS011;11254;50.098;8.726;2023-05-07T09:52:49;6.88;;;4.20;;
22176;SDS011;11254;50.098;8.726;2023-05-07T09:55:28;5.97;;;3.70;;
22176;SDS011;11254;50.098;8.726;2023-05-07T09:58:17;6.50;;;3.90;;
22176;SDS011;11254;50.098;8.726;2023-05-07T10:01:01;5.25;;;3.60;;
22176;SDS011;11254;50.098;8.726;2023-05-07T10:03:33;6.68;;;3.60;;
22176;SDS011;11254;50.098;8.726;2023-05-07T10:06:11;5.85;;;3.83;;
22176;SDS011;11254;50.098;8.726;2023-05-07T10:08:41;7.35;;;4.05;;
22176;SDS011;11254;50.098;8.726;2023-05-07T10:11:22;5.38;;;3.90;;
22176;SDS011;11254;50.098;8.726;2023-05-07T10:13:55;5.70;;;3.95;;
22176;SDS011;11254;50.098;8.726;2023-05-07T10:16:41;6.55;;;3.80;;
22176;SDS011;11254;50.098;8.726;2023-05-07T10:19:14;6.18;;;4.38;;
22176;SDS011;11254;50.098;8.726;2023-05-07T10:21:54;5.22;;;3.33;;
22176;SDS011;11254;50.098;8.726;2023-05-07T10:24:26;4.30;;;3.10;;
22176;SDS011;11254;50.098;8.726;2023-05-07T10:26:56;4.93;;;3.25;;
22176;SDS011;11254;50.098;8.726;2023-05-07T10:29:29;5.57;;;3.08;;
22176;SDS011;11254;50.098;8.726;2023-05-07T10:32:02;5.10;;;3.20;;
22176;SDS011;11254;50.098;8.726;2023-05-07T10:34:34;5.55;;;3.40;;
22176;SDS011;11254;50.098;8.726;2023-05-07T10:37:08;6.93;;;3.20;;
22176;SDS011;11254;50.098;8.726;2023-05-07T10:39:39;5.65;;;3.63;;
22176;SDS011;11254;50.098;8.726;2023-05-07T10:42:09;5.07;;;3.45;;
22176;SDS011;11254;50.098;8.726;2023-05-07T10:44:42;5.40;;;2.92;;
22176;SDS011;11254;50.098;8.726;2023-05-07T10:47:25;4.28;;;2.95;;
22176;SDS011;11254;50.098;8.726;2023-05-07T10:52:42;4.35;;;2.72;;
22176;SDS011;11254;50.098;8.726;2023-05-07T10:55:19;6.32;;;3.42;;
22176;SDS011;11254;50.098;8.726;2023-05-07T10:57:56;4.68;;;3.25;;
22176;SDS011;11254;50.098;8.726;2023-05-07T11:01:14;6.07;;;3.53;;
22176;SDS011;11254;50.098;8.726;2023-05-07T11:06:29;5.38;;;3.28;;
22176;SDS011;11254;50.098;8.726;2023-05-07T11:09:06;4.40;;;3.05;;
22176;SDS011;11254;50.098;8.726;2023-05-07T11:11:46;4.78;;;2.92;;
22176;SDS011;11254;50.098;8.726;2023-05-07T11:14:43;7.78;;;2.80;;
22176;SDS011;11254;50.098;8.726;2023-05-07T11:17:23;4.32;;;2.80;;
22176;SDS011;11254;50.098;8.726;2023-05-07T11:20:01;4.22;;;2.60;;
22176;SDS011;11254;50.098;8.726;2023-05-07T11:22:57;4.80;;;2.50;;
22176;SDS011;11254;50.098;8.726;2023-05-07T11:25:31;4.40;;;2.80;;
22176;SDS011;11254;50.098;8.726;2023-05-07T11:28:22;5.25;;;2.72;;
22176;SDS011;11254;50.098;8.726;2023-05-07T11:31:09;4.63;;;3.00;;
22176;SDS011;11254;50.098;8.726;2023-05-07T11:34:07;4.90;;;3.28;;
22176;SDS011;11254;50.098;8.726;2023-05-07T11:37:01;4.10;;;2.70;;
22176;SDS011;11254;50.098;8.726;2023-05-07T11:40:09;5.18;;;2.67;;
22176;SDS011;11254;50.098;8.726;2023-05-07T11:42:55;6.03;;;3.47;;
22176;SDS011;11254;50.098;8.726;2023-05-07T11:45:40;4.10;;;2.80;;
22176;SDS011;11254;50.098;8.726;2023-05-07T11:48:09;4.78;;;2.90;;
22176;SDS011;11254;50.098;8.726;2023-05-07T11:50:59;4.43;;;2.85;;
22176;SDS011;11254;50.098;8.726;2023-05-07T11:53:39;5.35;;;2.70;;
22176;SDS011;11254;50.098;8.726;2023-05-07T11:56:14;4.20;;;2.72;;
22176;SDS011;11254;50.098;8.726;2023-05-07T11:58:48;5.05;;;2.60;;
22176;SDS011;11254;50.098;8.726;2023-05-07T12:01:30;3.83;;;2.50;;
22176;SDS011;11254;50.098;8.726;2023-05-07T12:03:59;3.72;;;2.33;;
22176;SDS011;11254;50.098;8.726;2023-05-07T12:06:56;4.47;;;1.90;;
22176;SDS011;11254;50.098;8.726;2023-05-07T12:09:36;3.72;;;2.30;;
22176;SDS011;11254;50.098;8.726;2023-05-07T12:12:32;4.68;;;2.42;;
22176;SDS011;11254;50.098;8.726;2023-05-07T12:15:10;4.13;;;2.45;;
22176;SDS011;11254;50.098;8.726;2023-05-07T12:20:55;6.05;;;2.72;;
22176;SDS011;11254;50.098;8.726;2023-05-07T12:23:27;5.78;;;2.40;;
22176;SDS011;11254;50.098;8.726;2023-05-07T12:26:13;4.40;;;2.58;;
22176;SDS011;11254;50.098;8.726;2023-05-07T12:28:53;4.20;;;2.60;;
22176;SDS011;11254;50.098;8.726;2023-05-07T12:31:37;5.63;;;2.72;;
22176;SDS011;11254;50.098;8.726;2023-05-07T12:34:19;5.55;;;2.50;;
22176;SDS011;11254;50.098;8.726;2023-05-07T12:37:01;4.18;;;2.33;;
22176;SDS011;11254;50.098;8.726;2023-05-07T12:39:35;4.53;;;2.40;;
22176;SDS011;11254;50.098;8.726;2023-05-07T12:42:23;4.35;;;2.33;;
22176;SDS011;11254;50.098;8.726;2023-05-07T12:45:08;6.20;;;2.72;;
22176;SDS011;11254;50.098;8.726;2023-05-07T12:47:43;3.75;;;2.10;;
22176;SDS011;11254;50.098;8.726;2023-05-07T12:50:12;4.00;;;2.40;;
22176;SDS011;11254;50.098;8.726;2023-05-07T12:52:42;3.80;;;2.20;;
22176;SDS011;11254;50.098;8.726;2023-05-07T12:55:13;3.92;;;2.28;;
22176;SDS011;11254;50.098;8.726;2023-05-07T12:57:48;4.35;;;2.10;;
22176;SDS011;11254;50.098;8.726;2023-05-07T13:00:17;3.85;;;2.35;;
22176;SDS011;11254;50.098;8.726;2023-05-07T13:02:46;4.75;;;2.53;;
22176;SDS011;11254;50.098;8.726;2023-05-07T13:05:15;4.32;;;2.33;;
22176;SDS011;11254;50.098;8.726;2023-05-07T13:07:58;4.15;;;2.35;;
22176;SDS011;11254;50.098;8.726;2023-05-07T13:10:33;4.00;;;2.30;;
22176;SDS011;11254;50.098;8.726;2023-05-07T13:13:02;5.07;;;2.80;;
22176;SDS011;11254;50.098;8.726;2023-05-07T13:15:33;4.38;;;2.25;;
22176;SDS011;11254;50.098;8.726;2023-05-07T13:18:02;5.05;;;2.38;;
22176;SDS011;11254;50.098;8.726;2023-05-07T13:20:34;4.43;;;2.20;;
22176;SDS011;11254;50.098;8.726;2023-05-07T13:23:05;4.03;;;2.00;;
22176;SDS011;11254;50.098;8.726;2023-05-07T13:25:39;4.60;;;2.25;;
22176;SDS011;11254;50.098;8.726;2023-05-07T13:28:22;4.35;;;2.22;;
22176;SDS011;11254;50.098;8.726;2023-05-07T13:31:00;3.60;;;2.00;;
22176;SDS011;11254;50.098;8.726;2023-05-07T13:33:31;4.85;;;2.20;;
22176;SDS011;11254;50.098;8.726;2023-05-07T13:36:03;3.33;;;2.08;;
22176;SDS011;11254;50.098;8.726;2023-05-07T13:38:32;4.10;;;1.85;;
22176;SDS011;11254;50.098;8.726;2023-05-07T13:41:07;4.63;;;2.70;;
22176;SDS011;11254;50.098;8.726;2023-05-07T13:43:35;5.32;;;2.88;;
22176;SDS011;11254;50.098;8.726;2023-05-07T13:46:04;4.90;;;2.70;;
22176;SDS011;11254;50.098;8.726;2023-05-07T13:48:32;5.07;;;2.92;;
22176;SDS011;11254;50.098;8.726;2023-05-07T13:51:01;5.15;;;3.00;;
22176;SDS011;11254;50.098;8.726;2023-05-07T13:53:29;6.90;;;2.92;;
22176;SDS011;11254;50.098;8.726;2023-05-07T13:55:58;6.88;;;3.03;;
22176;SDS011;11254;50.098;8.726;2023-05-07T13:58:35;5.60;;;2.95;;
22176;SDS011;11254;50.098;8.726;2023-05-07T14:01:22;4.93;;;3.00;;
22176;SDS011;11254;50.098;8.726;2023-05-07T14:03:50;3.97;;;2.65;;
22176;SDS011;11254;50.098;8.726;2023-05-07T14:06:19;5.32;;;3.20;;
22176;SDS011;11254;50.098;8.726;2023-05-07T14:08:48;5.72;;;3.00;;
22176;SDS011;11254;50.098;8.726;2023-05-07T14:11:20;5.90;;;3.03;;
22176;SDS011;11254;50.098;8.726;2023-05-07T14:13:50;4.95;;;2.92;;
22176;SDS011;11254;50.098;8.726;2023-05-07T14:16:18;4.75;;;3.13;;
22176;SDS011;11254;50.098;8.726;2023-05-07T14:18:47;5.38;;;2.92;;
22176;SDS011;11254;50.098;8.726;2023-05-07T14:21:18;6.57;;;2.90;;
22176;SDS011;11254;50.098;8.726;2023-05-07T14:23:47;4.72;;;2.85;;
22176;SDS011;11254;50.098;8.726;2023-05-07T14:26:22;6.18;;;2.85;;
22176;SDS011;11254;50.098;8.726;2023-05-07T14:28:54;5.95;;;3.03;;
22176;SDS011;11254;50.098;8.726;2023-05-07T14:31:32;5.30;;;3.00;;
22176;SDS011;11254;50.098;8.726;2023-05-07T14:34:10;6.63;;;3.50;;
22176;SDS011;11254;50.098;8.726;2023-05-07T14:36:44;6.05;;;3.17;;
22176;SDS011;11254;50.098;8.726;2023-05-07T14:39:16;6.03;;;3.20;;
22176;SDS011;11254;50.098;8.726;2023-05-07T14:41:47;6.88;;;2.85;;
22176;SDS011;11254;50.098;8.726;2023-05-07T14:44:22;4.10;;;2.58;;
22176;SDS011;11254;50.098;8.726;2023-05-07T14:46:57;4.63;;;2.60;;
22176;SDS011;11254;50.098;8.726;2023-05-07T14:49:28;4.28;;;2.72;;
22176;SDS011;11254;50.098;8.726;2023-05-07T14:51:57;4.63;;;2.60;;
22176;SDS011;11254;50.098;8.726;2023-05-07T14:54:26;4.88;;;2.80;;
22176;SDS011;11254;50.098;8.726;2023-05-07T14:57:02;5.72;;;3.10;;
22176;SDS011;11254;50.098;8.726;2023-05-07T14:59:43;5.95;;;2.97;;
22176;SDS011;11254;50.098;8.726;2023-05-07T15:02:13;4.63;;;2.65;;
22176;SDS011;11254;50.098;8.726;2023-05-07T15:04:48;4.45;;;2.45;;
22176;SDS011;11254;50.098;8.726;2023-05-07T15:07:32;5.90;;;2.55;;
22176;SDS011;11254;50.098;8.726;2023-05-07T15:10:05;4.05;;;2.50;;
22176;SDS011;11254;50.098;8.726;2023-05-07T15:12:34;4.82;;;2.40;;
22176;SDS011;11254;50.098;8.726;2023-05-07T15:15:08;4.95;;;2.58;;
22176;SDS011;11254;50.098;8.726;2023-05-07T15:17:37;4.75;;;2.53;;
22176;SDS011;11254;50.098;8.726;2023-05-07T15:20:07;4.22;;;2.40;;
22176;SDS011;11254;50.098;8.726;2023-05-07T15:22:36;4.40;;;2.60;;
22176;SDS011;11254;50.098;8.726;2023-05-07T15:25:06;4.65;;;2.55;;
22176;SDS011;11254;50.098;8.726;2023-05-07T15:27:41;8.05;;;3.25;;
22176;SDS011;11254;50.098;8.726;2023-05-07T15:30:13;5.97;;;3.05;;
22176;SDS011;11254;50.098;8.726;2023-05-07T15:32:42;4.40;;;2.85;;
22176;SDS011;11254;50.098;8.726;2023-05-07T15:35:10;5.60;;;3.20;;
22176;SDS011;11254;50.098;8.726;2023-05-07T15:37:39;6.35;;;3.10;;